Time;durP1;ratioP1;P1;durP2;ratioP2;P2;SDS_P1;SDS_P2;PMS_P1;PMS_P2;Temp;Humidity;BMP_temperature;BMP_pressure;BME280_temperature;BME280_humidity;BME280_pressure;Samples;Min_cycle;Max_cycle;Signal;HPM_P1;HPM_P2
2023/02/17 00:01:22;;;;;;;94.90;57.72;;;7.50;99.90;;;;;;5111483;28;20038;-53
2023/02/17 00:03:49;;;;;;;103.38;61.45;;;7.50;99.90;;;;;;5111567;28;20035;-54
2023/02/17 00:06:17;;;;;;;104.43;62.92;;;7.40;99.90;;;;;;5133293;27;20111;-53
2023/02/17 00:08:44;;;;;;;93.88;56.55;;;7.30;99.90;;;;;;5132222;27;20034;-54
2023/02/17 00:11:09;;;;;;;90.72;55.88;;;7.20;99.90;;;;;;5134371;27;20030;-54
2023/02/17 00:13:35;;;;;;;81.53;52.78;;;7.10;99.90;;;;;;5133941;28;20019;-54
2023/02/17 00:16:20;;;;;;;81.55;54.90;;;7.00;99.90;;;;;;5132177;27;20083;-53
2023/02/17 00:18:46;;;;;;;64.53;44.85;;;6.80;99.90;;;;;;5134073;27;20038;-53
2023/02/17 00:21:17;;;;;;;65.75;44.40;;;6.70;99.90;;;;;;5134280;27;20114;-53
2023/02/17 00:23:44;;;;;;;60.30;40.95;;;6.80;99.90;;;;;;5134281;27;20038;-53
2023/02/17 00:26:10;;;;;;;68.05;44.45;;;6.60;99.90;;;;;;5134048;28;20058;-54
2023/02/17 00:28:36;;;;;;;83.03;51.35;;;6.50;99.90;;;;;;5134020;28;20529;-53
2023/02/17 00:31:06;;;;;;;73.50;45.90;;;6.10;99.90;;;;;;5114939;28;20035;-54
2023/02/17 00:33:32;;;;;;;90.85;56.47;;;5.80;99.90;;;;;;5114875;28;20099;-53
2023/02/17 00:35:57;;;;;;;66.80;42.67;;;5.60;99.90;;;;;;5134085;28;20023;-54
2023/02/17 00:38:23;;;;;;;62.72;40.25;;;5.30;99.90;;;;;;5133680;28;20085;-53
2023/02/17 00:40:49;;;;;;;53.83;39.03;;;;;;;;;;5134339;28;20020;-53
2023/02/17 00:43:15;;;;;;;73.85;46.58;;;4.80;99.90;;;;;;5115075;28;20040;-53
2023/02/17 00:45:41;;;;;;;98.85;55.88;;;4.70;99.90;;;;;;5131877;28;20045;-53
2023/02/17 00:48:06;;;;;;;79.90;48.97;;;4.70;99.90;;;;;;5134046;28;20098;-53
2023/02/17 00:50:32;;;;;;;98.25;54.75;;;4.90;99.90;;;;;;5133602;28;20037;-54
2023/02/17 00:52:58;;;;;;;96.78;54.38;;;5.30;99.90;;;;;;5133697;28;20033;-53
2023/02/17 00:55:25;;;;;;;89.82;51.97;;;5.60;99.90;;;;;;5133471;28;20072;-53
2023/02/17 00:57:51;;;;;;;81.68;49.67;;;5.70;99.90;;;;;;5134025;28;20031;-52
2023/02/17 01:00:17;;;;;;;77.35;50.25;;;6.00;99.90;;;;;;5114206;28;20055;-53
2023/02/17 01:02:43;;;;;;;82.10;50.72;;;6.10;99.90;;;;;;5131639;28;20066;-53
2023/02/17 01:05:08;;;;;;;85.35;53.40;;;6.20;99.90;;;;;;5133642;28;20472;-53
2023/02/17 01:07:36;;;;;;;80.47;51.58;;;6.20;99.90;;;;;;5131385;28;20042;-53
2023/02/17 01:10:03;;;;;;;77.65;52.40;;;6.20;99.90;;;;;;5114608;28;20047;-53
2023/02/17 01:12:29;;;;;;;79.05;51.10;;;6.30;99.90;;;;;;5133142;28;20034;-53
2023/02/17 01:14:55;;;;;;;77.43;51.67;;;6.30;99.90;;;;;;5114459;28;20465;-54
2023/02/17 01:17:21;;;;;;;80.38;51.30;;;6.30;99.90;;;;;;5134825;27;20145;-52
2023/02/17 01:19:46;;;;;;;74.97;49.03;;;6.20;99.90;;;;;;5137391;27;20027;-53
2023/02/17 01:22:12;;;;;;;81.25;52.28;;;6.30;99.90;;;;;;5137375;27;20408;-53
2023/02/17 01:24:38;;;;;;;73.13;47.65;;;6.20;99.90;;;;;;5136986;27;20104;-53
2023/02/17 01:27:04;;;;;;;74.05;48.88;;;6.20;99.90;;;;;;5137205;27;20497;-53
2023/02/17 01:29:30;;;;;;;77.22;50.60;;;6.10;99.90;;;;;;5118128;27;20065;-52
2023/02/17 01:31:56;;;;;;;77.05;49.67;;;6.10;99.90;;;;;;5137520;27;20035;-53
2023/02/17 01:34:21;;;;;;;100.03;60.90;;;6.10;99.90;;;;;;5137596;27;20051;-53
2023/02/17 01:36:47;;;;;;;80.70;50.67;;;5.80;99.90;;;;;;5137020;27;20386;-53
2023/02/17 01:39:14;;;;;;;74.43;49.75;;;6.00;99.90;;;;;;5137184;27;20083;-53
2023/02/17 01:41:40;;;;;;;70.63;47.53;;;5.70;99.90;;;;;;5134854;27;20169;-54
2023/02/17 01:44:25;;;;;;;65.60;44.28;;;5.50;99.90;;;;;;5136878;27;20027;-54
2023/02/17 01:46:53;;;;;;;112.10;76.07;;;5.50;99.90;;;;;;5136620;27;20493;-53
2023/02/17 01:49:34;;;;;;;77.20;50.15;;;5.30;99.90;;;;;;5137006;27;20023;-54
2023/02/17 01:52:11;;;;;;;92.53;59.90;;;5.30;99.90;;;;;;5136591;27;20031;-53
2023/02/17 01:54:48;;;;;;;117.22;68.57;;;5.30;99.90;;;;;;5136575;27;20115;-55
2023/02/17 01:57:18;;;;;;;77.00;50.67;;;5.10;99.90;;;;;;5137141;27;20174;-53
2023/02/17 01:59:44;;;;;;;56.35;40.50;;;5.00;99.90;;;;;;5136314;27;20051;-53
2023/02/17 02:02:11;;;;;;;53.83;38.53;;;4.70;99.90;;;;;;5136667;27;20034;-54
2023/02/17 02:04:40;;;;;;;70.03;46.25;;;4.70;99.90;;;;;;5136528;27;20031;-54
2023/02/17 02:07:13;;;;;;;75.45;50.72;;;4.60;99.90;;;;;;5136638;27;20023;-54
2023/02/17 02:09:43;;;;;;;103.93;64.50;;;4.70;99.90;;;;;;5136399;27;20080;-53
2023/02/17 02:12:27;;;;;;;77.63;50.85;;;4.90;99.90;;;;;;5134522;27;20043;-53
2023/02/17 02:14:57;;;;;;;65.07;43.63;;;5.10;99.90;;;;;;5136508;27;20023;-54
2023/02/17 02:17:35;;;;;;;48.22;35.33;;;5.40;99.90;;;;;;5136154;27;20019;-52
2023/02/17 02:20:21;;;;;;;52.72;36.65;;;5.30;99.90;;;;;;5136434;27;20049;-54
2023/02/17 02:22:58;;;;;;;45.40;34.60;;;4.70;99.90;;;;;;5138785;27;20035;-53
2023/02/17 02:25:45;;;;;;;52.47;34.88;;;4.90;99.90;;;;;;5139086;27;20082;-53
2023/02/17 02:28:29;;;;;;;49.45;33.47;;;4.90;99.90;;;;;;5138503;27;20019;-53
2023/02/17 02:30:58;;;;;;;45.90;34.28;;;5.00;99.90;;;;;;5136645;27;20030;-53
2023/02/17 02:33:38;;;;;;;45.97;33.92;;;4.90;99.90;;;;;;5136126;27;20402;-53
2023/02/17 02:36:21;;;;;;;47.15;32.38;;;4.60;99.90;;;;;;5136165;27;20042;-52
2023/02/17 02:39:10;;;;;;;47.55;33.83;;;4.00;99.90;;;;;;5136018;27;20393;-53
2023/02/17 02:41:41;;;;;;;54.08;36.80;;;4.30;99.90;;;;;;5136240;27;20031;-53
2023/02/17 02:44:08;;;;;;;55.05;37.30;;;4.10;99.90;;;;;;5133808;27;20035;-53
2023/02/17 02:46:35;;;;;;;48.15;35.08;;;4.20;99.90;;;;;;5135978;27;20023;-53
2023/02/17 02:49:02;;;;;;;47.08;33.63;;;4.40;99.90;;;;;;5136008;27;20030;-53
2023/02/17 02:51:31;;;;;;;44.65;32.28;;;4.50;99.90;;;;;;5135755;27;20020;-54
2023/02/17 02:54:08;;;;;;;41.88;30.88;;;4.50;99.90;;;;;;5135405;27;20027;-53
2023/02/17 02:57:05;;;;;;;48.90;31.08;;;4.40;99.90;;;;;;5135482;27;20385;-53
2023/02/17 02:59:57;;;;;;;42.05;29.23;;;4.60;99.90;;;;;;5135303;27;20402;-54
2023/02/17 03:02:23;;;;;;;;;;;4.40;99.90;;;;;;5135862;27;20022;-53
2023/02/17 03:05:09;;;;;;;42.17;30.80;;;4.60;99.90;;;;;;5135796;27;19903;-53
2023/02/17 03:07:43;;;;;;;45.40;31.40;;;4.70;99.90;;;;;;5134393;27;20493;-53
2023/02/17 03:10:09;;;;;;;42.58;29.50;;;4.70;99.90;;;;;;5135163;27;20070;-53
2023/02/17 03:12:38;;;;;;;41.17;30.70;;;4.50;99.90;;;;;;5116058;27;20066;-54
2023/02/17 03:15:32;;;;;;;41.53;30.65;;;4.40;99.90;;;;;;5135197;27;20023;-54
2023/02/17 03:17:59;;;;;;;45.35;32.08;;;4.40;99.90;;;;;;5132796;27;20065;-54
2023/02/17 03:20:28;;;;;;;49.65;32.88;;;4.60;99.90;;;;;;5135122;27;20457;-53
2023/02/17 03:22:54;;;;;;;45.33;32.60;;;4.60;99.90;;;;;;5134936;27;20389;-54
2023/02/17 03:25:20;;;;;;;44.40;33.63;;;4.80;99.90;;;;;;5134653;27;20118;-53
2023/02/17 03:27:46;;;;;;;70.60;56.10;;;4.90;99.90;;;;;;5135227;27;20027;-54
2023/02/17 03:30:12;;;;;;;53.25;39.90;;;5.00;99.90;;;;;;5135065;27;20390;-53
2023/02/17 03:32:38;;;;;;;54.88;40.15;;;5.00;99.90;;;;;;5134743;27;20035;-52
2023/02/17 03:35:04;;;;;;;43.72;35.33;;;5.10;99.90;;;;;;5132911;27;20092;-54
2023/02/17 03:37:30;;;;;;;58.20;41.72;;;5.20;99.90;;;;;;5135023;27;20027;-53
2023/02/17 03:39:56;;;;;;;126.65;70.60;;;5.00;99.90;;;;;;5134816;27;20015;-53
2023/02/17 03:42:23;;;;;;;67.78;43.47;;;5.10;99.90;;;;;;5134513;27;20023;-53
2023/02/17 03:44:48;;;;;;;51.60;37.33;;;4.80;99.90;;;;;;5134575;27;20034;-53
2023/02/17 03:47:14;;;;;;;52.47;38.10;;;4.50;99.90;;;;;;5128574;27;20027;-53
2023/02/17 03:49:40;;;;;;;55.45;39.65;;;4.00;99.90;;;;;;5134526;27;20023;-53
2023/02/17 03:52:06;;;;;;;58.47;40.53;;;;;;;;;;5134294;27;20042;-54
2023/02/17 03:54:31;;;;;;;62.75;40.83;;;3.70;99.90;;;;;;5134672;27;20070;-53
2023/02/17 03:56:59;;;;;;;59.08;41.00;;;3.80;99.90;;;;;;5131240;27;20059;-52
2023/02/17 03:59:26;;;;;;;53.00;37.20;;;3.90;99.90;;;;;;5115397;27;20035;-54
2023/02/17 04:01:51;;;;;;;57.35;39.00;;;4.10;99.90;;;;;;5115335;27;20035;-53
2023/02/17 04:04:17;;;;;;;57.60;40.70;;;3.90;99.90;;;;;;5134269;27;20436;-54
2023/02/17 04:06:43;;;;;;;65.53;45.35;;;4.10;99.90;;;;;;5134093;27;20030;-54
2023/02/17 04:09:09;;;;;;;60.28;41.05;;;4.20;99.90;;;;;;5134069;27;20063;-54
2023/02/17 04:11:35;;;;;;;52.22;37.88;;;4.40;99.90;;;;;;5134074;27;20031;-54
2023/02/17 04:14:01;;;;;;;57.92;39.72;;;4.50;99.90;;;;;;5134190;27;20486;-53
2023/02/17 04:16:27;;;;;;;56.85;38.38;;;4.70;99.90;;;;;;5134036;27;20023;-53
2023/02/17 04:18:52;;;;;;;54.47;39.33;;;4.80;99.90;;;;;;5134280;27;20027;-53
2023/02/17 04:21:18;;;;;;;53.78;37.95;;;4.90;99.90;;;;;;5133990;27;20030;-53
2023/02/17 04:23:44;;;;;;;59.35;40.83;;;4.90;99.90;;;;;;5134217;27;20024;-52
2023/02/17 04:26:10;;;;;;;54.47;40.08;;;4.80;99.90;;;;;;5134400;27;20019;-53
2023/02/17 04:28:40;;;;;;;68.97;42.30;;;4.90;99.90;;;;;;5133697;28;20395;-54
2023/02/17 04:31:06;;;;;;;60.38;41.15;;;5.00;99.90;;;;;;5134239;27;20515;-53
2023/02/17 04:33:33;;;;;;;61.35;39.97;;;5.00;99.90;;;;;;5114714;28;20047;-53
2023/02/17 04:35:58;;;;;;;59.67;42.03;;;4.90;99.90;;;;;;5114941;28;20035;-53
2023/02/17 04:38:31;;;;;;;61.63;42.80;;;4.90;99.90;;;;;;5133828;28;20024;-54
2023/02/17 04:40:58;;;;;;;50.67;37.10;;;4.90;99.90;;;;;;5133980;28;20439;-53
2023/02/17 04:43:25;;;;;;;55.80;40.13;;;4.80;99.90;;;;;;5133729;28;20027;-53
2023/02/17 04:45:51;;;;;;;55.95;40.90;;;4.60;99.90;;;;;;5134247;28;20023;-53
2023/02/17 04:48:17;;;;;;;51.72;35.35;;;4.70;99.90;;;;;;5132074;28;20028;-53
2023/02/17 04:50:43;;;;;;;52.90;34.33;;;4.80;99.90;;;;;;5133736;28;20059;-54
2023/02/17 04:53:09;;;;;;;53.67;38.22;;;4.80;99.90;;;;;;5136554;27;20059;-54
2023/02/17 04:55:35;;;;;;;50.28;37.30;;;4.70;99.90;;;;;;5084806;27;20027;-53
2023/02/17 04:58:00;;;;;;;65.28;43.65;;;4.80;99.90;;;;;;5137767;27;20020;-54
2023/02/17 05:00:26;;;;;;;64.82;41.03;;;4.90;99.90;;;;;;5137712;27;20114;-53
2023/02/17 05:02:52;;;;;;;51.53;38.00;;;4.90;99.90;;;;;;5137991;27;20023;-53
2023/02/17 05:05:18;;;;;;;54.08;39.13;;;4.90;99.90;;;;;;5137779;27;20027;-53
2023/02/17 05:07:45;;;;;;;59.28;39.50;;;4.70;99.90;;;;;;5137894;27;20114;-53
2023/02/17 05:10:11;;;;;;;50.30;36.50;;;4.80;99.90;;;;;;5137660;27;20045;-52
2023/02/17 05:12:38;;;;;;;50.08;35.70;;;4.80;99.90;;;;;;5137268;27;20122;-53
2023/02/17 05:15:05;;;;;;;53.15;35.30;;;4.80;99.90;;;;;;5137917;27;20030;-53
2023/02/17 05:17:31;;;;;;;51.50;35.53;;;4.90;99.90;;;;;;5137670;27;20023;-53
2023/02/17 05:19:56;;;;;;;48.30;34.25;;;5.00;99.90;;;;;;5135771;27;20035;-53
2023/02/17 05:22:22;;;;;;;48.13;32.08;;;5.10;99.90;;;;;;5135551;27;20100;-53
2023/02/17 05:24:48;;;;;;;46.30;32.95;;;5.10;99.90;;;;;;5137450;27;20027;-53
2023/02/17 05:27:14;;;;;;;45.50;33.35;;;5.00;99.90;;;;;;5137317;27;20059;-53
2023/02/17 05:29:40;;;;;;;49.03;34.75;;;4.70;99.90;;;;;;5137147;27;20027;-52
2023/02/17 05:32:05;;;;;;;50.80;35.47;;;4.70;99.90;;;;;;5135310;27;20486;-53
2023/02/17 05:34:31;;;;;;;52.95;36.15;;;4.70;99.90;;;;;;5137049;27;20096;-53
2023/02/17 05:36:57;;;;;;;48.47;34.60;;;4.70;99.90;;;;;;5118252;27;20046;-54
2023/02/17 05:39:22;;;;;;;52.20;35.45;;;4.70;99.90;;;;;;5137191;27;20060;-52
2023/02/17 05:41:48;;;;;;;67.18;42.38;;;4.90;99.90;;;;;;5137059;27;20030;-53
2023/02/17 05:44:14;;;;;;;70.40;38.25;;;5.00;99.90;;;;;;5118059;27;20042;-53
2023/02/17 05:46:40;;;;;;;56.08;33.78;;;5.00;99.90;;;;;;5123995;27;20035;-54
2023/02/17 05:49:06;;;;;;;49.35;34.45;;;5.10;99.90;;;;;;5097465;28;20039;-54
2023/02/17 05:51:32;;;;;;;55.15;35.90;;;5.10;99.90;;;;;;5116245;28;20019;-53
2023/02/17 05:53:58;;;;;;;63.08;37.75;;;5.20;99.90;;;;;;5116213;28;20027;-53
2023/02/17 05:56:24;;;;;;;57.47;37.78;;;5.20;99.90;;;;;;5116102;28;20036;-54
2023/02/17 05:58:50;;;;;;;52.90;34.95;;;5.30;99.90;;;;;;5116044;28;20024;-53
2023/02/17 06:01:15;;;;;;;79.75;48.58;;;5.30;99.90;;;;;;5114903;28;20028;-53
2023/02/17 06:03:41;;;;;;;56.67;36.97;;;5.00;99.90;;;;;;5113234;28;20038;-53
2023/02/17 06:06:27;;;;;;;59.15;35.95;;;4.90;99.90;;;;;;5113893;28;20039;-53
2023/02/17 06:08:53;;;;;;;55.20;37.08;;;5.10;99.90;;;;;;5079784;28;20457;-54
2023/02/17 06:11:18;;;;;;;66.63;40.70;;;5.10;99.90;;;;;;5113637;28;20040;-55
2023/02/17 06:13:44;;;;;;;65.75;42.25;;;5.20;99.90;;;;;;5113705;28;20028;-54
2023/02/17 06:16:10;;;;;;;69.80;46.85;;;6.20;99.90;;;;;;5113909;28;20032;-55
2023/02/17 06:18:36;;;;;;;64.15;45.65;;;7.70;99.90;;;;;;5063387;28;20038;-53
2023/02/17 06:21:01;;;;;;;67.15;41.58;;;9.10;99.90;;;;;;5113768;28;20122;-53
2023/02/17 06:23:27;;;;;;;86.70;51.45;;;10.40;99.90;;;;;;5114661;28;20020;-54
2023/02/17 06:25:53;;;;;;;76.97;53.15;;;;;;;;;;5079606;28;20119;-54
2023/02/17 06:28:19;;;;;;;78.88;49.53;;;12.60;99.90;;;;;;5115216;28;20028;-54
2023/02/17 06:30:45;;;;;;;67.78;46.75;;;13.70;99.90;;;;;;5114346;28;20502;-53
2023/02/17 06:33:11;;;;;;;71.25;51.08;;;14.60;99.90;;;;;;5126311;27;20122;-54
2023/02/17 06:35:37;;;;;;;72.25;50.58;;;;;;;;;;5133378;27;20114;-54
2023/02/17 06:38:03;;;;;;;60.33;45.88;;;15.80;98.20;;;;;;5104783;27;20042;-53
2023/02/17 06:40:29;;;;;;;63.05;47.60;;;;;;;;;;5135984;27;20027;-53
2023/02/17 06:42:55;;;;;;;59.92;44.65;;;;;;;;;;5135159;27;20122;-55
2023/02/17 06:45:21;;;;;;;44.20;34.60;;;17.50;92.20;;;;;;5135316;27;20061;-55
2023/02/17 06:47:47;;;;;;;46.38;32.67;;;;;;;;;;5135310;27;20477;-54
2023/02/17 06:50:14;;;;;;;43.90;31.20;;;;;;;;;;5135109;27;20026;-53
2023/02/17 06:52:40;;;;;;;40.17;30.42;;;19.00;89.40;;;;;;5132315;27;20039;-53
2023/02/17 06:55:07;;;;;;;38.15;29.45;;;;;;;;;;5134876;27;20550;-54
2023/02/17 06:57:33;;;;;;;36.65;29.02;;;;;;;;;;5115571;27;20172;-54
2023/02/17 06:59:59;;;;;;;35.17;28.92;;;20.60;83.10;;;;;;5134926;27;20084;-54
2023/02/17 07:02:24;;;;;;;37.47;28.92;;;20.50;83.40;;;;;;5135717;27;20115;-53
2023/02/17 07:04:50;;;;;;;35.33;28.25;;;21.00;82.60;;;;;;5135119;27;20023;-54
2023/02/17 07:07:16;;;;;;;35.38;29.10;;;21.30;81.80;;;;;;5135291;27;20050;-54
2023/02/17 07:09:41;;;;;;;36.65;30.65;;;21.90;81.10;;;;;;5135513;27;20059;-54
2023/02/17 07:12:07;;;;;;;38.95;32.40;;;;;;;;;;5135099;27;20134;-54
2023/02/17 07:14:34;;;;;;;39.05;31.95;;;;;;;;;;5134457;27;20023;-54
2023/02/17 07:17:00;;;;;;;45.03;33.83;;;22.90;90.70;;;;;;5115617;27;20027;-54
2023/02/17 07:19:26;;;;;;;45.25;34.17;;;23.30;78.40;;;;;;5081262;27;20031;-54
2023/02/17 07:21:52;;;;;;;39.10;34.83;;;23.00;76.40;;;;;;5135023;27;20026;-54
2023/02/17 07:24:18;;;;;;;43.15;36.08;;;22.80;76.50;;;;;;5115574;27;20039;-54
2023/02/17 07:26:44;;;;;;;44.40;38.78;;;;;;;;;;5134567;27;20023;-54
2023/02/17 07:29:09;;;;;;;45.05;35.65;;;23.40;75.80;;;;;;5134022;27;20041;-54
2023/02/17 07:31:35;;;;;;;45.53;36.88;;;;;;;;;;5134345;27;20545;-54
2023/02/17 07:34:02;;;;;;;45.63;38.50;;;;;;;;;;5134207;27;20086;-54
2023/02/17 07:36:28;;;;;;;53.60;43.17;;;;;;;;;;5115355;27;20123;-53
2023/02/17 07:38:54;;;;;;;52.15;44.30;;;;;;;;;;5134531;27;20023;-54
2023/02/17 07:41:23;;;;;;;54.30;45.85;;;24.60;91.00;;;;;;5134121;27;20027;-52
2023/02/17 07:43:55;;;;;;;56.90;47.45;;;24.10;75.20;;;;;;5134411;27;20028;-52
2023/02/17 07:46:21;;;;;;;48.80;40.88;;;;;;;;;;5114374;27;20042;-52
2023/02/17 07:48:47;;;;;;;49.33;41.00;;;24.70;73.60;;;;;;5134257;27;20359;-52
2023/02/17 07:51:18;;;;;;;50.28;39.47;;;24.40;74.50;;;;;;5134765;27;20030;-52
2023/02/17 07:53:45;;;;;;;51.80;41.47;;;;;;;;;;5115138;27;20138;-52
2023/02/17 07:56:12;;;;;;;48.92;39.60;;;;;;;;;;5115379;27;20363;-52
2023/02/17 07:58:40;;;;;;;45.67;35.70;;;26.40;94.80;;;;;;5133673;27;20038;-52
2023/02/17 08:01:07;;;;;;;49.97;38.85;;;27.60;82.00;;;;;;5133600;27;20043;-53
2023/02/17 08:03:34;;;;;;;48.67;38.17;;;27.70;71.90;;;;;;5097535;27;20070;-52
2023/02/17 08:06:00;;;;;;;49.90;43.05;;;27.90;71.60;;;;;;5122956;27;20479;-52
2023/02/17 08:13:59;;;;;;;39.10;34.67;;;27.70;69.30;;;;;;5132313;27;20080;-52
2023/02/17 08:16:28;;;;;;;42.75;36.15;;;27.30;68.60;;;;;;5132993;27;20019;-52
2023/02/17 08:18:55;;;;;;;42.17;33.28;;;27.10;69.30;;;;;;5133608;27;20130;-52
2023/02/17 08:21:22;;;;;;;46.38;35.83;;;27.70;68.70;;;;;;5133943;27;20030;-53
2023/02/17 08:23:48;;;;;;;41.30;35.08;;;27.10;68.70;;;;;;5133317;27;20011;-52
2023/02/17 08:26:14;;;;;;;44.97;33.83;;;27.00;68.40;;;;;;5132953;27;20051;-52
2023/02/17 08:28:40;;;;;;;40.97;33.42;;;27.00;68.80;;;;;;5064047;28;20039;-52
2023/02/17 08:31:13;;;;;;;40.80;35.53;;;27.00;68.80;;;;;;5133864;28;20501;-52
2023/02/17 08:33:39;;;;;;;44.53;37.95;;;27.00;68.90;;;;;;5133908;28;20047;-52
2023/02/17 08:36:06;;;;;;;41.80;36.80;;;27.20;69.10;;;;;;5134054;28;20542;-52
2023/02/17 08:38:33;;;;;;;40.75;34.00;;;;;;;;;;5114759;28;20379;-52
2023/02/17 08:40:59;;;;;;;41.38;33.60;;;27.10;95.60;;;;;;5114594;28;20035;-52
2023/02/17 08:43:25;;;;;;;39.03;33.03;;;27.50;69.40;;;;;;5133084;28;20142;-52
2023/02/17 08:45:50;;;;;;;36.30;32.33;;;27.40;69.20;;;;;;5131097;28;20051;-52
2023/02/17 08:48:16;;;;;;;42.08;35.00;;;27.90;68.70;;;;;;5134190;28;20027;-52
2023/02/17 08:50:45;;;;;;;39.25;32.60;;;27.90;69.00;;;;;;5133801;27;20030;-53
2023/02/17 08:53:11;;;;;;;39.50;33.22;;;28.30;68.40;;;;;;5115337;28;20040;-52
2023/02/17 08:55:37;;;;;;;36.22;31.75;;;;;;;;;;5133669;28;20034;-54
2023/02/17 08:58:02;;;;;;;39.30;31.88;;;28.40;68.10;;;;;;5133324;28;20027;-52
2023/02/17 09:00:28;;;;;;;73.90;57.05;;;28.20;68.60;;;;;;5132707;28;20509;-52
2023/02/17 09:02:54;;;;;;;36.60;31.63;;;28.10;68.80;;;;;;5105362;28;20047;-52
2023/02/17 09:05:20;;;;;;;43.15;35.08;;;28.30;68.80;;;;;;5133285;28;20389;-53
2023/02/17 09:07:45;;;;;;;34.20;29.98;;;28.40;68.00;;;;;;5133280;27;20026;-55
2023/02/17 09:10:13;;;;;;;36.92;31.35;;;28.70;67.90;;;;;;5133711;28;20068;-52
2023/02/17 09:12:40;;;;;;;34.90;29.45;;;28.70;67.10;;;;;;5132613;28;20149;-53
2023/02/17 09:15:06;;;;;;;38.45;33.65;;;28.60;66.70;;;;;;5133599;28;20031;-52
2023/02/17 09:17:32;;;;;;;35.85;31.15;;;28.10;67.30;;;;;;5064003;28;20031;-52
2023/02/17 09:19:58;;;;;;;33.78;29.02;;;28.40;67.50;;;;;;5114540;28;20390;-52
2023/02/17 09:22:23;;;;;;;31.33;25.67;;;28.80;67.20;;;;;;5131868;28;20035;-52
2023/02/17 09:24:49;;;;;;;38.10;33.33;;;28.40;67.00;;;;;;5134054;28;20088;-52
2023/02/17 09:27:15;;;;;;;26.88;23.58;;;27.80;67.20;;;;;;5133622;28;20027;-52
2023/02/17 09:29:40;;;;;;;28.33;24.77;;;28.00;67.60;;;;;;5133522;27;20024;-53
2023/02/17 09:32:07;;;;;;;28.77;24.35;;;28.30;66.80;;;;;;5133508;28;20031;-52
2023/02/17 09:34:35;;;;;;;30.25;25.35;;;28.30;67.00;;;;;;5132851;27;20031;-53
2023/02/17 09:37:01;;;;;;;48.63;28.85;;;28.20;67.10;;;;;;5133339;28;20110;-53
2023/02/17 09:39:27;;;;;;;29.45;26.15;;;27.70;67.40;;;;;;5108317;27;20106;-53
2023/02/17 09:41:54;;;;;;;27.77;22.48;;;27.30;67.20;;;;;;5136289;27;20029;-53
2023/02/17 09:44:41;;;;;;;26.75;22.75;;;26.80;67.70;;;;;;5136963;27;20023;-53
2023/02/17 09:47:16;;;;;;;22.00;18.70;;;;;;;;;;5135259;27;20072;-53
2023/02/17 09:49:45;;;;;;;21.40;19.13;;;;;;;;;;5117655;27;20451;-53
2023/02/17 09:52:17;;;;;;;20.58;17.33;;;;;;;;;;5114191;28;20070;-52
2023/02/17 09:55:12;;;;;;;24.80;19.23;;;26.20;68.90;;;;;;5113177;28;20031;-53
2023/02/17 09:57:55;;;;;;;17.58;14.65;;;26.10;69.50;;;;;;5112791;28;20043;-52
2023/02/17 10:00:43;;;;;;;14.38;12.15;;;26.10;69.30;;;;;;5113371;28;20051;-53
2023/02/17 10:03:22;;;;;;;15.32;12.48;;;25.50;68.40;;;;;;5088534;28;20064;-53
2023/02/17 10:06:04;;;;;;;13.52;11.77;;;25.50;69.80;;;;;;5101917;28;20031;-53
2023/02/17 10:08:47;;;;;;;15.30;13.70;;;24.20;70.10;;;;;;5072958;28;20433;-53
2023/02/17 10:11:33;;;;;;;13.85;11.75;;;23.90;70.70;;;;;;5023301;28;20116;-52
2023/02/17 10:14:06;;;;;;;10.65;9.13;;;23.90;71.20;;;;;;5072308;28;20049;-53
2023/02/17 10:16:39;;;;;;;12.02;9.23;;;25.00;70.70;;;;;;5069396;28;20542;-52
2023/02/17 10:19:13;;;;;;;10.55;9.45;;;24.60;71.00;;;;;;5062980;28;20040;-52
2023/02/17 10:21:44;;;;;;;11.38;9.10;;;25.00;70.70;;;;;;5061027;28;20839;-52
2023/02/17 10:24:10;;;;;;;;;;;24.40;71.80;;;;;;5071589;28;20050;-48
2023/02/17 10:26:48;;;;;;;10.73;9.20;;;;;;;;;;5072734;28;20003;-52
2023/02/17 10:29:30;;;;;;;10.65;9.02;;;25.90;72.00;;;;;;5072779;28;20047;-53
2023/02/17 10:32:21;;;;;;;15.68;10.57;;;25.20;70.00;;;;;;5072567;28;20104;-53
2023/02/17 10:35:10;;;;;;;14.07;8.35;;;25.90;95.60;;;;;;5072744;28;20044;-53
2023/02/17 10:37:45;;;;;;;10.82;9.85;;;25.10;69.10;;;;;;5072671;28;20114;-52
2023/02/17 10:40:31;;;;;;;11.10;8.95;;;;;;;;;;5122643;27;20035;-52
2023/02/17 10:43:04;;;;;;;11.88;10.75;;;24.00;71.00;;;;;;5132980;27;20109;-53
2023/02/17 10:45:33;;;;;;;10.77;9.45;;;;;;;;;;5135657;27;20107;-52
2023/02/17 10:48:03;;;;;;;14.15;10.68;;;;;;;;;;5136075;27;20409;-53
2023/02/17 10:50:29;;;;;;;15.73;10.88;;;22.60;85.70;;;;;;5115962;27;20118;-53
2023/02/17 10:52:56;;;;;;;13.15;10.45;;;23.30;73.20;;;;;;5135781;27;20043;-53
2023/02/17 10:55:35;;;;;;;11.93;10.40;;;23.00;77.30;;;;;;5135335;27;20030;-53
2023/02/17 10:58:13;;;;;;;21.60;16.13;;;;;;;;;;5133632;27;20524;-52
2023/02/17 11:00:41;;;;;;;22.35;11.90;;;23.20;99.90;;;;;;5133203;27;20051;-53
2023/02/17 11:03:27;;;;;;;16.30;10.85;;;23.60;80.90;;;;;;5134741;27;20030;-53
2023/02/17 11:05:59;;;;;;;15.52;11.32;;;23.80;90.90;;;;;;5132619;27;20031;-53
2023/02/17 11:08:24;;;;;;;;;;;23.50;93.50;;;;;;5135897;27;20390;-52
2023/02/17 11:11:03;;;;;;;14.52;11.32;;;24.00;74.60;;;;;;5135403;27;19903;-52
2023/02/17 11:13:41;;;;;;;11.73;10.50;;;24.10;90.50;;;;;;5135161;27;20066;-53
2023/02/17 11:16:23;;;;;;;15.30;13.70;;;23.70;88.20;;;;;;5135248;27;20023;-53
2023/02/17 11:18:49;;;;;;;12.68;11.15;;;23.70;87.80;;;;;;5135240;27;20034;-53
2023/02/17 11:21:15;;;;;;;14.98;11.68;;;23.50;86.50;;;;;;5123953;27;20024;-48
2023/02/17 11:24:15;;;;;;;17.70;15.40;;;23.60;87.00;;;;;;5100505;27;20031;-54
2023/02/17 11:26:41;;;;;;;17.73;13.85;;;23.50;86.70;;;;;;5126135;27;20035;-54
2023/02/17 11:29:14;;;;;;;12.77;11.35;;;23.50;84.20;;;;;;5128713;27;20157;-52
2023/02/17 11:31:39;;;;;;;11.85;10.63;;;23.60;83.40;;;;;;5134739;27;20031;-54
2023/02/17 11:34:21;;;;;;;11.70;10.13;;;23.60;76.70;;;;;;5134225;27;20103;-54
2023/02/17 11:37:15;;;;;;;16.33;13.15;;;23.60;76.40;;;;;;5106719;27;20043;-53
2023/02/17 11:39:44;;;;;;;13.18;11.02;;;23.40;75.70;;;;;;5134862;27;20084;-54
2023/02/17 11:42:20;;;;;;;12.68;10.70;;;23.80;78.10;;;;;;5135169;27;20077;-55
2023/02/17 11:44:46;;;;;;;12.10;10.43;;;23.30;75.60;;;;;;5115827;27;20122;-56
2023/02/17 11:47:19;;;;;;;11.75;9.30;;;;;;;;;;5134486;27;20072;-55
2023/02/17 11:49:54;;;;;;;19.00;15.05;;;;;;;;;;5134605;27;20597;-54
2023/02/17 11:52:49;;;;;;;20.45;16.17;;;22.50;97.90;;;;;;5134199;27;20110;-52
2023/02/17 11:55:41;;;;;;;13.32;9.82;;;22.40;79.10;;;;;;5134050;27;20509;-55
2023/02/17 11:58:34;;;;;;;10.63;9.52;;;21.90;73.50;;;;;;5134610;27;20080;-56
2023/02/17 12:01:28;;;;;;;15.27;10.57;;;22.20;74.60;;;;;;5134208;27;20069;-56
2023/02/17 12:04:12;;;;;;;16.00;11.18;;;22.00;73.60;;;;;;5134425;27;20027;-54
2023/02/17 12:07:02;;;;;;;14.82;9.63;;;22.70;73.60;;;;;;5134566;27;20104;-54
2023/02/17 12:09:47;;;;;;;12.63;10.52;;;;;;;;;;5134621;27;20027;-55
2023/02/17 12:12:21;;;;;;;37.60;28.58;;;22.40;73.40;;;;;;5115003;27;20059;-57
2023/02/17 12:15:12;;;;;;;15.13;10.65;;;22.40;74.40;;;;;;5134175;27;20459;-56
2023/02/17 12:17:43;;;;;;;12.70;10.30;;;21.60;74.20;;;;;;5070988;28;20045;-54
2023/02/17 12:20:46;;;;;;;12.83;10.13;;;21.50;76.00;;;;;;5070904;28;20509;-52
2023/02/17 12:23:26;;;;;;;15.02;10.95;;;21.30;75.80;;;;;;5070898;28;20037;-51
2023/02/17 12:26:35;;;;;;;19.25;13.73;;;21.20;75.10;;;;;;5070888;28;20177;-54
2023/02/17 12:29:27;;;;;;;11.02;9.35;;;20.90;75.10;;;;;;5070235;28;20047;-51
2023/02/17 12:32:13;;;;;;;23.25;9.50;;;21.60;76.10;;;;;;5070878;28;20025;-53
2023/02/17 12:34:54;;;;;;;11.68;8.93;;;21.80;74.20;;;;;;5070751;28;20044;-54
2023/02/17 12:37:30;;;;;;;25.77;20.10;;;21.40;73.90;;;;;;5070592;28;20025;-56
2023/02/17 12:40:05;;;;;;;13.32;9.80;;;21.70;74.50;;;;;;5070784;28;20043;-54
2023/02/17 12:42:37;;;;;;;18.27;10.73;;;22.00;74.50;;;;;;5037112;28;20562;-55
2023/02/17 12:45:14;;;;;;;12.63;9.93;;;22.00;74.40;;;;;;5070823;28;20024;-57
2023/02/17 12:47:45;;;;;;;12.73;9.35;;;21.90;73.80;;;;;;5070358;28;20373;-55
2023/02/17 12:50:21;;;;;;;15.37;9.70;;;21.70;73.80;;;;;;5070700;28;20028;-54
2023/02/17 12:52:51;;;;;;;10.48;8.68;;;22.40;74.60;;;;;;5053795;28;20071;-52
2023/02/17 12:55:33;;;;;;;13.10;9.85;;;21.80;74.50;;;;;;5083835;28;20427;-54
2023/02/17 12:58:02;;;;;;;13.63;10.68;;;21.90;73.80;;;;;;5133948;27;20016;-54
2023/02/17 13:00:45;;;;;;;11.35;7.78;;;21.80;73.10;;;;;;5133513;28;20051;-56
2023/02/17 13:03:11;;;;;;;14.10;9.52;;;22.10;74.50;;;;;;5114871;28;20042;-55
2023/02/17 13:05:47;;;;;;;12.68;7.35;;;22.20;73.80;;;;;;5133739;27;20378;-57